createdAt,value
2017-07-26T00:01:40.381Z,100247.78
2017-07-26T00:04:12.639Z,100252.55
2017-07-26T00:06:44.987Z,100249.44
2017-07-26T00:09:17.240Z,100250.80
2017-07-26T00:11:49.776Z,100258.95
2017-07-26T00:14:21.941Z,100259.03
2017-07-26T00:16:54.267Z,100254.83
2017-07-26T00:19:26.706Z,100251.59
2017-07-26T00:21:59.082Z,100252.02
2017-07-26T00:24:31.518Z,100256.53
2017-07-26T00:27:04.066Z,100255.09
2017-07-26T00:29:36.260Z,100257.19
2017-07-26T00:32:08.564Z,100258.33
2017-07-26T00:34:40.898Z,100253.55
2017-07-26T00:37:13.384Z,100248.83
2017-07-26T00:39:45.626Z,100254.59
2017-07-26T00:42:17.939Z,100257.63
2017-07-26T00:44:50.259Z,100257.45
2017-07-26T00:47:22.451Z,100254.59
2017-07-26T00:49:54.666Z,100258.47
2017-07-26T00:52:26.827Z,100244.84
2017-07-26T00:54:59.202Z,100250.53
2017-07-26T00:57:31.360Z,100248.48
2017-07-26T01:00:04.756Z,100249.26
2017-07-26T01:02:37.218Z,100244.88
2017-07-26T01:05:09.718Z,100249.00
2017-07-26T01:07:42.023Z,100249.87
2017-07-26T01:10:14.444Z,100255.73
2017-07-26T01:12:46.876Z,100254.78
2017-07-26T01:15:19.222Z,100248.89
2017-07-26T01:17:52.369Z,100238.48
2017-07-26T01:20:25.064Z,100246.35
2017-07-26T01:22:57.443Z,100246.00
2017-07-26T01:25:29.744Z,100250.69
2017-07-26T01:28:02.006Z,100252.88
2017-07-26T01:30:34.456Z,100253.40
2017-07-26T01:33:06.846Z,100253.86
2017-07-26T01:35:39.122Z,100256.43
2017-07-26T01:38:11.283Z,100258.83
2017-07-26T01:40:43.562Z,100262.16
2017-07-26T01:43:15.725Z,100256.06
2017-07-26T01:45:48.054Z,100253.61
2017-07-26T01:48:20.454Z,100252.39
2017-07-26T01:50:52.844Z,100254.36
2017-07-26T01:53:25.192Z,100252.77
2017-07-26T01:55:57.501Z,100249.80
2017-07-26T01:58:29.848Z,100249.70
2017-07-26T02:01:02.304Z,100249.80
2017-07-26T02:03:34.581Z,100254.56
2017-07-26T02:06:07.092Z,100249.62
2017-07-26T02:08:39.271Z,100247.16
2017-07-26T02:11:11.713Z,100253.61
2017-07-26T02:13:44.050Z,100261.09
2017-07-26T02:16:16.436Z,100262.16
2017-07-26T02:18:48.727Z,100261.89
2017-07-26T02:21:21.198Z,100265.39
2017-07-26T02:23:53.387Z,100260.10
2017-07-26T02:26:25.695Z,100261.32
2017-07-26T02:28:57.995Z,100261.28
2017-07-26T02:31:30.388Z,100261.81
2017-07-26T02:34:02.620Z,100267.23
2017-07-26T02:36:35.187Z,100266.45
2017-07-26T02:39:07.482Z,100269.61
2017-07-26T02:41:39.821Z,100266.45
2017-07-26T02:44:12.136Z,100268.04
2017-07-26T02:46:44.578Z,100267.37
2017-07-26T02:49:16.732Z,100265.81
2017-07-26T02:51:49.232Z,100266.08
2017-07-26T02:54:21.435Z,100274.63
2017-07-26T02:56:53.770Z,100270.89
2017-07-26T02:59:26.267Z,100277.51
2017-07-26T03:01:58.682Z,100284.20
2017-07-26T03:04:31.099Z,100286.80
2017-07-26T03:07:03.508Z,100287.63
2017-07-26T03:09:35.739Z,100286.19
2017-07-26T03:12:08.206Z,100294.94
2017-07-26T03:14:40.703Z,100292.66
2017-07-26T03:17:12.942Z,100289.64
2017-07-26T03:19:45.293Z,100288.28
2017-07-26T03:22:17.611Z,100291.96
2017-07-26T03:24:49.922Z,100288.37
2017-07-26T03:27:22.263Z,100284.73
2017-07-26T03:29:54.533Z,100286.27
2017-07-26T03:32:26.855Z,100285.17
2017-07-26T03:34:59.119Z,100290.69
2017-07-26T03:37:31.427Z,100285.92
2017-07-26T03:40:03.776Z,100291.09
2017-07-26T03:42:36.199Z,100286.00
2017-07-26T03:45:08.618Z,100287.98
2017-07-26T03:47:40.895Z,100287.67
2017-07-26T03:50:13.208Z,100286.75
2017-07-26T03:52:45.444Z,100288.77
2017-07-26T03:55:17.695Z,100292.92
2017-07-26T03:57:50.020Z,100289.42
2017-07-26T04:00:22.373Z,100287.09
2017-07-26T04:02:54.798Z,100289.20
2017-07-26T04:05:27.115Z,100292.70
2017-07-26T04:07:59.433Z,100296.77
2017-07-26T04:10:31.852Z,100290.83
2017-07-26T04:13:04.235Z,100295.77
2017-07-26T04:15:36.412Z,100294.90
2017-07-26T04:18:08.665Z,100283.47
2017-07-26T04:20:40.972Z,100274.05
2017-07-26T04:23:13.240Z,100282.98
2017-07-26T04:25:45.558Z,100277.29
2017-07-26T04:28:17.798Z,100284.66
2017-07-26T04:30:50.090Z,100287.28
2017-07-26T04:33:22.384Z,100291.13
2017-07-26T04:35:54.656Z,100298.84
2017-07-26T04:38:27.025Z,100300.89
2017-07-26T04:40:59.392Z,100297.31
2017-07-26T04:43:31.611Z,100293.59
2017-07-26T04:46:03.839Z,100289.86
2017-07-26T04:48:36.202Z,100279.88
2017-07-26T04:51:08.523Z,100283.20
2017-07-26T04:53:40.911Z,100275.58
2017-07-26T04:56:13.163Z,100271.63
2017-07-26T04:58:46.046Z,100273.19
2017-07-26T05:01:17.876Z,100277.93
2017-07-26T05:03:50.254Z,100278.45
2017-07-26T05:06:22.652Z,100285.97
2017-07-26T05:08:54.980Z,100288.28
2017-07-26T05:11:27.349Z,100291.00
2017-07-26T05:13:59.695Z,100287.36
2017-07-26T05:16:32.034Z,100289.06
2017-07-26T05:19:04.426Z,100287.56
2017-07-26T05:21:36.695Z,100287.56
2017-07-26T05:24:09.126Z,100297.07
2017-07-26T05:26:41.420Z,100298.78
2017-07-26T05:29:13.888Z,100299.82
2017-07-26T05:31:46.144Z,100302.02
2017-07-26T05:34:18.464Z,100298.14
2017-07-26T05:36:50.895Z,100300.69
2017-07-26T05:39:23.204Z,100310.89
2017-07-26T05:41:55.459Z,100309.42
2017-07-26T05:44:27.745Z,100304.33
2017-07-26T05:47:00.000Z,100303.31
2017-07-26T05:49:32.400Z,100299.16
2017-07-26T05:52:04.635Z,100303.75
2017-07-26T05:54:37.007Z,100308.60
2017-07-26T05:57:09.393Z,100295.73
2017-07-26T05:59:41.816Z,100304.30
2017-07-26T06:02:14.076Z,100300.68
2017-07-26T06:04:46.638Z,100301.12
2017-07-26T06:07:18.908Z,100299.50
2017-07-26T06:09:51.342Z,100301.84
2017-07-26T06:12:23.625Z,100292.61
2017-07-26T06:14:56.102Z,100294.22
2017-07-26T06:17:28.388Z,100287.17
2017-07-26T06:20:00.854Z,100291.66
2017-07-26T06:22:33.343Z,100293.20
2017-07-26T06:25:05.623Z,100292.23
2017-07-26T06:27:38.028Z,100301.59
2017-07-26T06:30:10.420Z,100297.69
2017-07-26T06:32:42.788Z,100304.05
2017-07-26T06:35:15.183Z,100311.19
2017-07-26T06:37:47.656Z,100312.03
2017-07-26T06:40:19.950Z,100311.61
2017-07-26T06:42:52.933Z,100317.73
2017-07-26T06:45:25.591Z,100326.84
2017-07-26T06:47:57.810Z,100331.19
2017-07-26T06:50:30.175Z,100326.33
2017-07-26T06:53:02.529Z,100332.45
2017-07-26T06:55:34.979Z,100324.79
2017-07-26T06:58:07.333Z,100325.47
2017-07-26T07:00:39.706Z,100323.08
2017-07-26T07:03:11.980Z,100331.17
2017-07-26T07:05:44.232Z,100332.27
2017-07-26T07:08:16.555Z,100336.48
2017-07-26T07:10:48.920Z,100334.08
2017-07-26T07:13:21.291Z,100336.25
2017-07-26T07:15:53.595Z,100332.94
2017-07-26T07:18:25.934Z,100333.98
2017-07-26T07:20:58.119Z,100341.13
2017-07-26T07:23:30.515Z,100333.56
2017-07-26T07:26:02.817Z,100333.35
2017-07-26T07:28:34.943Z,100335.23
2017-07-26T07:31:07.370Z,100332.72
2017-07-26T07:33:39.673Z,100334.34
2017-07-26T07:36:11.950Z,100333.00
2017-07-26T07:38:44.255Z,100341.95
2017-07-26T07:41:16.695Z,100341.96
2017-07-26T07:43:48.948Z,100348.41
2017-07-26T07:46:21.306Z,100347.02
2017-07-26T07:48:53.703Z,100343.11
2017-07-26T07:51:26.035Z,100342.39
2017-07-26T07:53:58.402Z,100340.25
2017-07-26T07:56:30.660Z,100339.66
2017-07-26T07:59:02.972Z,100345.17
2017-07-26T08:01:35.359Z,100340.20
2017-07-26T08:04:07.859Z,100345.28
2017-07-26T08:06:40.190Z,100346.34
2017-07-26T08:09:12.413Z,100345.68
2017-07-26T08:11:45.026Z,100350.45
2017-07-26T08:14:17.099Z,100349.25
2017-07-26T08:16:49.435Z,100350.22
2017-07-26T08:19:21.793Z,100352.32
2017-07-26T08:21:54.083Z,100348.74
2017-07-26T08:24:26.334Z,100350.69
2017-07-26T08:26:58.594Z,100343.06
2017-07-26T08:29:30.872Z,100339.73
2017-07-26T08:32:03.111Z,100341.52
2017-07-26T08:34:35.408Z,100342.55
2017-07-26T08:37:07.727Z,100338.17
2017-07-26T08:39:40.042Z,100334.78
2017-07-26T08:42:12.336Z,100336.26
2017-07-26T08:44:44.567Z,100340.64
2017-07-26T08:47:16.972Z,100340.87
2017-07-26T08:49:49.322Z,100341.38
2017-07-26T08:52:21.801Z,100340.93
2017-07-26T08:54:54.185Z,100340.91
2017-07-26T08:57:26.646Z,100339.25
2017-07-26T08:59:59.012Z,100341.67
2017-07-26T09:02:31.383Z,100349.26
2017-07-26T09:05:03.774Z,100346.30
2017-07-26T09:07:36.233Z,100343.39
2017-07-26T09:10:08.520Z,100348.05
2017-07-26T09:12:41.009Z,100347.01
2017-07-26T09:15:13.392Z,100346.20
2017-07-26T09:17:45.730Z,100339.45
2017-07-26T09:20:18.094Z,100338.89
2017-07-26T09:22:50.487Z,100337.28
2017-07-26T09:25:22.848Z,100339.16
2017-07-26T09:27:55.356Z,100343.56
2017-07-26T09:30:27.682Z,100339.16
2017-07-26T09:33:00.055Z,100331.28
2017-07-26T09:35:32.403Z,100326.19
2017-07-26T09:38:04.931Z,100327.86
2017-07-26T09:40:37.263Z,100324.63
2017-07-26T09:43:09.599Z,100331.13
2017-07-26T09:45:41.826Z,100333.61
2017-07-26T09:48:14.227Z,100337.45
2017-07-26T09:50:46.532Z,100329.52
2017-07-26T09:53:18.852Z,100339.09
2017-07-26T09:55:51.130Z,100337.77
2017-07-26T09:58:23.532Z,100336.81
2017-07-26T10:00:55.870Z,100331.45
2017-07-26T10:03:28.280Z,100333.25
2017-07-26T10:06:00.590Z,100330.39
2017-07-26T10:08:33.019Z,100334.72
2017-07-26T10:11:05.579Z,100335.66
2017-07-26T10:13:37.770Z,100337.92
2017-07-26T10:16:10.042Z,100331.80
2017-07-26T10:18:42.428Z,100330.05
2017-07-26T10:21:14.847Z,100324.90
2017-07-26T10:23:47.376Z,100325.84
2017-07-26T10:26:19.733Z,100329.98
2017-07-26T10:28:52.083Z,100330.27
2017-07-26T10:31:24.547Z,100332.80
2017-07-26T10:33:56.938Z,100334.27
2017-07-26T10:36:29.218Z,100332.92
2017-07-26T10:39:01.703Z,100339.66
2017-07-26T10:41:34.060Z,100330.33
2017-07-26T10:44:06.556Z,100340.91
2017-07-26T10:46:38.995Z,100346.19
2017-07-26T10:49:11.290Z,100340.52
2017-07-26T10:51:43.666Z,100338.56
2017-07-26T10:54:16.096Z,100344.32
2017-07-26T10:56:48.367Z,100345.03
2017-07-26T10:59:21.694Z,100342.08
2017-07-26T11:01:54.095Z,100343.80
2017-07-26T11:04:26.542Z,100348.59
2017-07-26T11:06:58.840Z,100341.25
2017-07-26T11:09:32.222Z,100339.73
2017-07-26T11:12:04.640Z,100339.53
2017-07-26T11:14:37.111Z,100345.72
2017-07-26T11:17:09.465Z,100344.99
2017-07-26T11:19:41.900Z,100343.78
2017-07-26T11:22:14.379Z,100335.02
2017-07-26T11:24:46.709Z,100337.38
2017-07-26T11:27:19.216Z,100339.04
2017-07-26T11:29:51.647Z,100344.30
2017-07-26T11:32:24.098Z,100338.50
2017-07-26T11:34:56.494Z,100341.72
2017-07-26T11:37:28.826Z,100349.37
2017-07-26T11:40:01.252Z,100348.69
2017-07-26T11:42:33.604Z,100345.66
2017-07-26T11:45:05.955Z,100353.38
2017-07-26T11:47:38.307Z,100350.83
2017-07-26T11:50:10.697Z,100351.55
2017-07-26T11:52:43.200Z,100353.43
2017-07-26T11:55:15.594Z,100355.91
2017-07-26T11:57:47.991Z,100347.45
2017-07-26T12:00:20.502Z,100350.81
2017-07-26T12:02:52.871Z,100343.15
2017-07-26T12:05:25.354Z,100349.63
2017-07-26T12:07:57.827Z,100345.83
2017-07-26T12:10:30.129Z,100347.03
2017-07-26T12:13:02.458Z,100342.70
2017-07-26T12:15:34.768Z,100343.37
2017-07-26T12:18:07.166Z,100344.02
2017-07-26T12:20:39.578Z,100343.64
2017-07-26T12:23:11.958Z,100339.91
2017-07-26T12:25:44.195Z,100334.93
2017-07-26T12:28:16.526Z,100341.42
2017-07-26T12:30:48.913Z,100341.23
2017-07-26T12:33:21.170Z,100339.39
2017-07-26T12:35:53.518Z,100335.74
2017-07-26T12:38:25.897Z,100332.80
2017-07-26T12:40:58.272Z,100339.38
2017-07-26T12:43:30.678Z,100344.35
2017-07-26T12:46:03.056Z,100339.50
2017-07-26T12:48:35.492Z,100338.52
2017-07-26T12:51:08.151Z,100344.36
2017-07-26T12:53:40.235Z,100344.88
2017-07-26T12:56:12.639Z,100341.28
2017-07-26T12:58:44.909Z,100344.66
2017-07-26T13:01:17.385Z,100346.32
2017-07-26T13:03:49.559Z,100346.20
2017-07-26T13:06:21.944Z,100346.08
2017-07-26T13:08:54.347Z,100342.95
2017-07-26T13:11:26.799Z,100347.16
2017-07-26T13:13:59.219Z,100348.02
2017-07-26T13:16:31.987Z,100348.38
2017-07-26T13:19:04.093Z,100348.90
2017-07-26T13:21:36.630Z,100348.64
2017-07-26T13:24:08.735Z,100342.03
2017-07-26T13:26:41.123Z,100343.68
2017-07-26T13:29:13.476Z,100343.69
2017-07-26T13:31:45.848Z,100347.77
2017-07-26T13:34:18.300Z,100342.54
2017-07-26T13:36:50.718Z,100342.09
2017-07-26T13:39:23.154Z,100348.03
2017-07-26T13:41:55.579Z,100339.53
2017-07-26T13:44:27.974Z,100337.08
2017-07-26T13:47:00.415Z,100331.62
2017-07-26T13:49:32.745Z,100341.40
2017-07-26T13:52:05.168Z,100331.11
2017-07-26T13:54:37.460Z,100324.92
2017-07-26T13:57:09.900Z,100326.22
2017-07-26T13:59:42.095Z,100325.59
2017-07-26T14:02:14.366Z,100328.28
2017-07-26T14:04:46.679Z,100332.64
2017-07-26T14:07:18.970Z,100330.97
2017-07-26T14:09:51.231Z,100330.23
2017-07-26T14:12:23.622Z,100329.15
2017-07-26T14:14:55.990Z,100329.03
2017-07-26T14:17:28.384Z,100325.56
2017-07-26T14:20:00.922Z,100323.11
2017-07-26T14:22:33.400Z,100332.56
2017-07-26T14:25:05.688Z,100341.40
2017-07-26T14:27:38.108Z,100339.38
2017-07-26T14:30:10.467Z,100326.98
2017-07-26T14:32:42.817Z,100331.20
2017-07-26T14:35:15.171Z,100324.10
2017-07-26T14:37:48.758Z,100327.85
2017-07-26T14:40:21.153Z,100322.63
2017-07-26T14:42:53.543Z,100318.95
2017-07-26T14:45:25.907Z,100315.20
2017-07-26T14:47:59.253Z,100315.55
2017-07-26T14:50:31.662Z,100312.64
2017-07-26T14:53:04.052Z,100312.14
2017-07-26T14:55:36.450Z,100314.34
2017-07-26T14:58:08.818Z,100317.55
2017-07-26T15:00:41.240Z,100316.19
2017-07-26T15:03:13.321Z,100315.23
2017-07-26T15:05:45.691Z,100303.75
2017-07-26T15:08:17.998Z,100318.73
2017-07-26T15:10:50.261Z,100318.55
2017-07-26T15:13:22.604Z,100323.43
2017-07-26T15:15:55.086Z,100313.02
2017-07-26T15:18:27.592Z,100312.08
2017-07-26T15:21:00.035Z,100305.42
2017-07-26T15:23:32.459Z,100311.28
2017-07-26T15:26:05.184Z,100306.30
2017-07-26T15:28:37.267Z,100299.44
2017-07-26T15:31:09.643Z,100300.78
2017-07-26T15:33:42.127Z,100303.86
2017-07-26T15:36:14.480Z,100304.61
2017-07-26T15:38:46.869Z,100299.66
2017-07-26T15:41:19.295Z,100301.87
2017-07-26T15:43:51.640Z,100302.11
2017-07-26T15:46:24.067Z,100298.23
2017-07-26T15:48:56.414Z,100296.88
2017-07-26T15:51:29.021Z,100297.17
2017-07-26T15:54:01.178Z,100310.63
2017-07-26T15:56:33.661Z,100302.54
2017-07-26T15:59:06.159Z,100301.79
2017-07-26T16:01:38.444Z,100317.02
2017-07-26T16:04:10.793Z,100308.19
2017-07-26T16:06:43.056Z,100316.83
2017-07-26T16:09:15.527Z,100310.41
2017-07-26T16:11:48.010Z,100317.74
2017-07-26T16:14:21.508Z,100312.85
2017-07-26T16:16:54.024Z,100313.32
2017-07-26T16:19:26.413Z,100311.45
2017-07-26T16:21:58.750Z,100307.70
2017-07-26T16:24:31.131Z,100310.31
2017-07-26T16:27:03.519Z,100302.70
2017-07-26T16:29:35.841Z,100311.57
2017-07-26T16:32:08.061Z,100311.17
2017-07-26T16:34:40.424Z,100305.47
2017-07-26T16:37:12.762Z,100308.50
2017-07-26T16:39:45.193Z,100313.75
2017-07-26T16:42:17.426Z,100310.43
2017-07-26T16:44:49.859Z,100299.26
2017-07-26T16:47:22.168Z,100305.69
2017-07-26T16:49:54.658Z,100311.27
2017-07-26T16:52:27.015Z,100303.98
2017-07-26T16:54:59.420Z,100312.06
2017-07-26T16:57:31.771Z,100306.43
2017-07-26T17:00:03.947Z,100302.92
2017-07-26T17:02:36.266Z,100305.69
2017-07-26T17:05:08.683Z,100308.52
2017-07-26T17:07:41.078Z,100304.97
2017-07-26T17:10:13.548Z,100303.91
2017-07-26T17:12:45.982Z,100303.55
2017-07-26T17:15:18.338Z,100303.31
2017-07-26T17:17:50.583Z,100304.34
2017-07-26T17:20:22.875Z,100303.63
2017-07-26T17:22:55.202Z,100300.67
2017-07-26T17:25:27.517Z,100305.94
2017-07-26T17:27:59.863Z,100302.45
2017-07-26T17:30:32.115Z,100314.19
2017-07-26T17:33:04.462Z,100303.19
2017-07-26T17:35:36.712Z,100308.61
2017-07-26T17:38:09.003Z,100311.83
2017-07-26T17:40:41.323Z,100305.16
2017-07-26T17:43:13.682Z,100306.72
2017-07-26T17:45:47.095Z,100306.11
2017-07-26T17:48:19.479Z,100310.47
2017-07-26T17:50:51.795Z,100304.02
2017-07-26T17:53:24.085Z,100307.84
2017-07-26T17:55:56.313Z,100304.66
2017-07-26T17:58:28.595Z,100301.41
2017-07-26T18:01:00.980Z,100308.30
2017-07-26T18:03:43.287Z,100316.70
2017-07-26T18:06:15.495Z,100309.64
2017-07-26T18:08:47.845Z,100306.48
2017-07-26T18:11:20.200Z,100314.85
2017-07-26T18:13:52.526Z,100325.20
2017-07-26T18:16:24.843Z,100315.90
2017-07-26T18:18:57.053Z,100320.89
2017-07-26T18:21:29.320Z,100319.50
2017-07-26T18:24:01.700Z,100322.37
2017-07-26T18:26:34.147Z,100318.23
2017-07-26T18:29:06.651Z,100325.82
2017-07-26T18:31:38.996Z,100323.89
2017-07-26T18:34:11.466Z,100325.03
2017-07-26T18:36:43.940Z,100327.67
2017-07-26T18:39:16.300Z,100323.65
2017-07-26T18:41:48.639Z,100329.07
2017-07-26T18:44:20.992Z,100324.81
2017-07-26T18:46:53.371Z,100329.88
2017-07-26T18:49:25.816Z,100328.37
2017-07-26T18:51:58.308Z,100332.88
2017-07-26T18:54:30.564Z,100332.70
2017-07-26T18:57:02.927Z,100337.17
2017-07-26T18:59:35.418Z,100336.42
2017-07-26T19:02:07.755Z,100338.58
2017-07-26T19:04:40.120Z,100334.27
2017-07-26T19:07:12.412Z,100338.94
2017-07-26T19:09:44.924Z,100332.33
2017-07-26T19:12:17.349Z,100336.73
2017-07-26T19:14:49.690Z,100337.42
2017-07-26T19:17:22.122Z,100333.78
2017-07-26T19:19:54.531Z,100333.48
2017-07-26T19:22:26.883Z,100335.00
2017-07-26T19:24:59.255Z,100331.98
2017-07-26T19:27:31.623Z,100337.20
2017-07-26T19:30:04.130Z,100333.80
2017-07-26T19:32:36.488Z,100337.22
2017-07-26T19:35:09.011Z,100339.19
2017-07-26T19:37:41.251Z,100344.53
2017-07-26T19:40:13.642Z,100341.12
2017-07-26T19:42:45.992Z,100340.43
2017-07-26T19:45:18.351Z,100339.74
2017-07-26T19:47:50.799Z,100335.17
2017-07-26T19:50:23.198Z,100343.34
2017-07-26T19:52:55.738Z,100346.38
2017-07-26T19:55:28.212Z,100337.59
2017-07-26T19:58:00.590Z,100343.34
2017-07-26T20:00:32.983Z,100342.95
2017-07-26T20:03:05.289Z,100345.03
2017-07-26T20:05:37.683Z,100344.82
2017-07-26T20:08:10.170Z,100348.13
2017-07-26T20:10:42.694Z,100357.34
2017-07-26T20:13:14.874Z,100359.16
2017-07-26T20:15:47.255Z,100361.47
2017-07-26T20:18:19.601Z,100364.83
2017-07-26T20:20:52.027Z,100368.25
2017-07-26T20:23:24.303Z,100364.11
2017-07-26T20:25:56.739Z,100364.54
2017-07-26T20:28:29.082Z,100366.50
2017-07-26T20:31:01.523Z,100366.59
2017-07-26T20:33:33.958Z,100367.91
2017-07-26T20:36:06.360Z,100367.86
2017-07-26T20:38:38.724Z,100365.38
2017-07-26T20:41:11.127Z,100362.16
2017-07-26T20:43:43.427Z,100364.20
2017-07-26T20:46:15.827Z,100359.67
2017-07-26T20:48:48.264Z,100361.87
2017-07-26T20:51:20.662Z,100370.83
2017-07-26T20:53:52.938Z,100372.11
2017-07-26T20:56:25.418Z,100367.92
2017-07-26T20:58:57.746Z,100366.90
2017-07-26T21:01:30.180Z,100367.47
2017-07-26T21:04:02.498Z,100362.60
2017-07-26T21:06:34.847Z,100364.40
2017-07-26T21:09:07.215Z,100366.05
2017-07-26T21:11:39.791Z,100358.34
2017-07-26T21:14:12.080Z,100359.05
2017-07-26T21:16:44.692Z,100354.96
2017-07-26T21:19:17.046Z,100354.38
2017-07-26T21:21:49.464Z,100352.67
2017-07-26T21:24:21.731Z,100352.17
2017-07-26T21:26:54.132Z,100356.94
2017-07-26T21:29:26.537Z,100354.30
2017-07-26T21:31:59.064Z,100351.08
2017-07-26T21:34:31.386Z,100354.67
2017-07-26T21:37:03.826Z,100359.27
2017-07-26T21:39:36.174Z,100353.06
2017-07-26T21:42:08.491Z,100351.27
2017-07-26T21:44:40.809Z,100353.24
2017-07-26T21:47:13.306Z,100346.64
2017-07-26T21:49:45.663Z,100352.41
2017-07-26T21:52:18.043Z,100355.59
2017-07-26T21:54:50.350Z,100354.99
2017-07-26T21:57:22.798Z,100341.13
2017-07-26T21:59:55.263Z,100341.22
2017-07-26T22:02:27.650Z,100341.89
2017-07-26T22:05:00.030Z,100341.30
2017-07-26T22:07:32.513Z,100345.31
2017-07-26T22:10:04.823Z,100342.15
2017-07-26T22:12:37.164Z,100338.48
2017-07-26T22:15:09.431Z,100336.97
2017-07-26T22:17:41.831Z,100330.66
2017-07-26T22:20:14.192Z,100325.57
2017-07-26T22:22:46.539Z,100324.91
2017-07-26T22:25:18.819Z,100320.16
2017-07-26T22:27:51.188Z,100320.23
2017-07-26T22:30:23.455Z,100328.82
2017-07-26T22:32:55.748Z,100322.62
2017-07-26T22:35:28.087Z,100321.60
2017-07-26T22:38:00.403Z,100321.94
2017-07-26T22:40:32.743Z,100316.92
2017-07-26T22:43:05.011Z,100312.48
2017-07-26T22:45:37.310Z,100310.27
2017-07-26T22:48:09.467Z,100310.19
2017-07-26T22:50:41.820Z,100306.02
2017-07-26T22:53:14.195Z,100311.98
2017-07-26T22:55:46.462Z,100308.95
2017-07-26T22:58:18.736Z,100304.53
2017-07-26T23:00:51.027Z,100301.46
2017-07-26T23:03:23.392Z,100300.45
2017-07-26T23:05:55.668Z,100303.03
2017-07-26T23:08:28.247Z,100305.25
2017-07-26T23:11:00.496Z,100305.84
2017-07-26T23:13:32.959Z,100298.54
2017-07-26T23:16:05.383Z,100297.34
2017-07-26T23:18:38.749Z,100298.55
2017-07-26T23:21:11.132Z,100298.99
2017-07-26T23:23:43.605Z,100287.16
2017-07-26T23:26:15.652Z,100290.03
2017-07-26T23:28:48.215Z,100287.42
2017-07-26T23:31:20.268Z,100292.00
2017-07-26T23:33:52.603Z,100281.80
2017-07-26T23:36:24.864Z,100284.33
2017-07-26T23:38:57.144Z,100280.24
2017-07-26T23:41:29.367Z,100282.11
2017-07-26T23:44:01.555Z,100289.02
2017-07-26T23:46:33.956Z,100282.95
2017-07-26T23:49:06.229Z,100277.01
2017-07-26T23:51:38.581Z,100273.44
2017-07-26T23:54:10.974Z,100277.02
2017-07-26T23:56:43.301Z,100273.78
2017-07-26T23:59:15.701Z,100274.05
